createdAt,value
2023-01-30T00:01:25.339Z,100073.77
2023-01-30T00:03:52.455Z,100072.66
2023-01-30T00:06:22.428Z,100072.58
2023-01-30T00:08:49.485Z,100071.61
2023-01-30T00:11:22.437Z,100076.67
2023-01-30T00:13:50.316Z,100079.12
2023-01-30T00:16:17.574Z,100076.34
2023-01-30T00:18:46.756Z,100071.68
2023-01-30T00:21:14.208Z,100068.33
2023-01-30T00:23:42.892Z,100063.13
2023-01-30T00:26:10.354Z,100065.95
2023-01-30T00:28:45.809Z,100066.60
2023-01-30T00:31:12.965Z,100068.02
2023-01-30T00:33:39.938Z,100066.63
2023-01-30T00:36:07.964Z,100071.57
2023-01-30T00:38:40.455Z,100065.20
2023-01-30T00:41:07.591Z,100066.52
2023-01-30T00:43:59.329Z,100062.91
2023-01-30T00:46:51.898Z,100067.16
2023-01-30T00:49:24.442Z,100065.79
2023-01-30T00:51:51.584Z,100060.66
2023-01-30T00:54:18.636Z,100063.13
2023-01-30T00:56:45.907Z,100062.34
2023-01-30T00:59:12.939Z,100058.59
2023-01-30T01:01:40.449Z,100056.58
2023-01-30T01:04:14.943Z,100058.89
2023-01-30T01:06:43.748Z,100062.02
2023-01-30T01:09:16.276Z,100062.47
2023-01-30T01:11:43.321Z,100062.59
2023-01-30T01:14:10.783Z,100060.91
2023-01-30T01:16:38.400Z,100062.41
2023-01-30T01:19:05.592Z,100062.00
2023-01-30T01:21:37.864Z,100060.83
2023-01-30T01:24:05.726Z,100056.86
2023-01-30T01:26:34.919Z,100054.73
2023-01-30T01:29:02.789Z,100051.02
2023-01-30T01:31:31.346Z,100055.41
2023-01-30T01:33:59.342Z,100056.73
2023-01-30T01:36:51.672Z,100062.48
2023-01-30T01:39:20.985Z,100062.23
2023-01-30T01:41:50.079Z,100061.73
2023-01-30T01:44:17.696Z,100060.90
2023-01-30T01:46:48.561Z,100064.19
2023-01-30T01:49:20.282Z,100064.16
2023-01-30T01:51:55.380Z,100062.30
2023-01-30T01:54:39.027Z,100063.17
2023-01-30T01:57:08.158Z,100060.98
2023-01-30T01:59:38.984Z,100060.84
2023-01-30T02:02:09.294Z,100060.86
2023-01-30T02:04:57.548Z,100061.81
2023-01-30T02:07:24.655Z,100060.70
2023-01-30T02:09:52.264Z,100055.27
2023-01-30T02:12:20.795Z,100057.55
2023-01-30T02:14:48.052Z,100053.61
2023-01-30T02:17:15.204Z,100050.39
2023-01-30T02:19:48.504Z,100053.03
2023-01-30T02:22:31.833Z,100052.07
2023-01-30T02:25:20.696Z,100050.20
2023-01-30T02:28:10.051Z,100048.88
2023-01-30T02:31:33.152Z,100043.29
2023-01-30T02:34:26.687Z,100037.42
2023-01-30T02:37:24.653Z,100032.59
2023-01-30T02:40:17.817Z,100026.33
2023-01-30T02:43:19.473Z,100030.20
2023-01-30T02:46:17.168Z,100030.45
2023-01-30T02:48:49.307Z,100032.34
2023-01-30T02:51:19.652Z,100035.55
2023-01-30T02:53:47.605Z,100040.14
2023-01-30T02:56:14.859Z,100040.27
2023-01-30T02:58:49.453Z,100040.11
2023-01-30T03:01:36.271Z,100046.80
2023-01-30T03:04:27.405Z,100046.89
2023-01-30T03:07:31.553Z,100047.33
2023-01-30T03:10:53.275Z,100045.86
2023-01-30T03:13:27.660Z,100046.67
2023-01-30T03:16:08.233Z,100045.33
2023-01-30T03:18:36.506Z,100040.48
2023-01-30T03:21:08.669Z,100046.89
2023-01-30T03:23:36.125Z,100049.28
2023-01-30T03:26:11.230Z,100043.81
2023-01-30T03:28:43.641Z,100057.02
2023-01-30T03:31:10.755Z,100058.89
2023-01-30T03:33:43.541Z,100058.63
2023-01-30T03:36:10.921Z,100061.89
2023-01-30T03:38:38.492Z,100065.84
2023-01-30T03:41:10.750Z,100061.70
2023-01-30T03:43:38.926Z,100062.69
2023-01-30T03:46:07.979Z,100064.36
2023-01-30T03:48:35.882Z,100061.67
2023-01-30T03:51:02.943Z,100065.49
2023-01-30T03:53:30.905Z,100067.34
2023-01-30T03:55:59.280Z,100062.91
2023-01-30T03:58:29.909Z,100068.23
2023-01-30T04:00:57.220Z,100070.79
2023-01-30T04:03:25.978Z,100067.41
2023-01-30T04:05:55.250Z,100069.30
2023-01-30T04:08:22.606Z,100069.94
2023-01-30T04:10:54.976Z,100071.63
2023-01-30T04:13:23.002Z,100077.06
2023-01-30T04:15:56.065Z,100076.30
2023-01-30T04:19:00.057Z,100078.64
2023-01-30T04:21:33.137Z,100074.88
2023-01-30T04:24:02.232Z,100075.19
2023-01-30T04:26:29.808Z,100077.89
2023-01-30T04:29:03.400Z,100074.02
2023-01-30T04:31:30.869Z,100071.20
2023-01-30T08:28:15.112Z,100023.69
2023-01-30T08:30:42.270Z,100016.67
2023-01-30T08:33:09.102Z,100008.42
2023-01-30T08:35:36.273Z,100005.77
2023-01-30T08:38:06.731Z,100000.89
2023-01-30T08:40:33.570Z,99996.27
2023-01-30T08:43:00.726Z,99992.41
2023-01-30T08:45:28.207Z,99990.19
2023-01-30T08:48:03.012Z,99985.13
2023-01-30T08:50:31.802Z,99980.99
2023-01-30T08:53:06.948Z,99973.55
2023-01-30T08:55:34.196Z,99970.15
2023-01-30T08:58:04.167Z,99964.90
2023-01-30T09:00:32.092Z,99957.61
2023-01-30T09:03:05.168Z,99952.08
2023-01-30T09:05:33.437Z,99949.98
2023-01-30T09:08:00.489Z,99945.58
2023-01-30T09:10:27.534Z,99941.44
2023-01-30T09:13:14.449Z,99935.45
2023-01-30T09:15:43.643Z,99935.48
2023-01-30T09:18:10.997Z,99930.02
2023-01-30T09:20:39.683Z,99927.60
2023-01-30T09:23:07.344Z,99923.25
2023-01-30T09:25:35.522Z,99918.40
2023-01-30T09:28:03.183Z,99911.42
2023-01-30T09:30:30.292Z,99905.86
2023-01-30T09:32:59.223Z,99899.39
2023-01-30T09:35:26.471Z,99890.51
2023-01-30T09:37:54.386Z,99888.17
2023-01-30T09:40:27.420Z,99881.83
2023-01-30T09:43:04.099Z,99875.34
2023-01-30T09:45:44.773Z,99869.12
2023-01-30T09:48:35.052Z,99865.67
2023-01-30T09:51:05.799Z,99858.14
2023-01-30T09:53:57.878Z,99854.86
2023-01-30T09:56:31.227Z,99855.67
2023-01-30T09:59:25.322Z,99849.88
2023-01-30T10:02:31.721Z,99843.20
2023-01-30T10:05:16.899Z,99836.24
2023-01-30T10:08:14.358Z,99829.51
2023-01-30T10:11:09.523Z,99824.47
2023-01-30T10:13:56.169Z,99825.20
2023-01-30T10:16:29.006Z,99817.77
2023-01-30T10:19:33.553Z,99811.38
2023-01-30T10:22:11.962Z,99811.15
2023-01-30T10:25:00.642Z,99805.74
2023-01-30T10:27:28.975Z,99801.17
2023-01-30T10:29:57.764Z,99794.40
2023-01-30T10:33:04.999Z,99790.11
2023-01-30T10:35:37.836Z,99783.84
2023-01-30T10:38:12.146Z,99780.77
2023-01-30T10:41:00.518Z,99780.41
2023-01-30T10:43:40.706Z,99774.30
2023-01-30T10:46:10.257Z,99761.17
2023-01-30T10:49:20.479Z,99757.70
2023-01-30T10:52:00.781Z,99755.48
2023-01-30T10:54:35.532Z,99744.13
2023-01-30T10:57:20.207Z,99746.05
2023-01-30T10:59:51.430Z,99740.56
2023-01-30T11:02:53.833Z,99743.49
2023-01-30T11:05:22.214Z,99738.31
2023-01-30T11:07:49.108Z,99734.27
2023-01-30T11:10:18.650Z,99738.08
2023-01-30T11:12:47.155Z,99735.09
2023-01-30T11:15:14.172Z,99733.70
2023-01-30T11:17:41.815Z,99726.66
2023-01-30T11:20:16.515Z,99727.30
2023-01-30T11:23:03.862Z,99715.67
2023-01-30T11:25:31.936Z,99710.42
2023-01-30T11:28:03.591Z,99709.54
2023-01-30T11:30:33.910Z,99703.25
2023-01-30T11:33:16.446Z,99697.14
2023-01-30T11:35:44.761Z,99694.30
2023-01-30T11:38:20.662Z,99687.38
2023-01-30T11:40:47.743Z,99688.19
2023-01-30T11:43:14.607Z,99683.48
2023-01-30T11:45:47.246Z,99678.49
2023-01-30T11:48:33.455Z,99681.16
2023-01-30T11:51:05.741Z,99679.20
2023-01-30T11:53:38.318Z,99674.80
2023-01-30T11:56:35.670Z,99673.33
2023-01-30T11:59:05.903Z,99669.77
2023-01-30T12:01:35.222Z,99661.45
2023-01-30T12:04:08.248Z,99661.77
2023-01-30T12:06:37.188Z,99654.98
2023-01-30T12:09:04.501Z,99656.98
2023-01-30T12:11:41.612Z,99656.45
2023-01-30T12:14:16.430Z,99649.27
2023-01-30T12:17:08.859Z,99655.34
2023-01-30T12:19:51.983Z,99651.19
2023-01-30T12:22:45.842Z,99653.09
2023-01-30T12:25:25.284Z,99651.50
2023-01-30T12:27:59.700Z,99652.97
2023-01-30T12:30:41.952Z,99653.02
2023-01-30T12:33:12.531Z,99655.48
2023-01-30T12:35:49.336Z,99646.98
2023-01-30T12:39:01.209Z,99644.88
2023-01-30T12:41:47.001Z,99643.38
2023-01-30T12:44:43.316Z,99638.65
2023-01-30T12:47:23.826Z,99638.75
2023-01-30T12:50:21.956Z,99640.20
2023-01-30T12:53:07.005Z,99634.86
2023-01-30T12:55:43.509Z,99640.94
2023-01-30T12:58:29.139Z,99638.41
2023-01-30T13:01:00.275Z,99630.28
2023-01-30T13:03:33.487Z,99626.83
2023-01-30T13:06:10.336Z,99619.73
2023-01-30T13:09:06.739Z,99622.77
2023-01-30T13:11:57.849Z,99620.30
2023-01-30T13:14:46.183Z,99618.34
2023-01-30T13:17:38.373Z,99620.67
2023-01-30T13:20:17.882Z,99612.54
2023-01-30T17:19:59.895Z,99623.98
2023-01-30T17:22:29.189Z,99621.81
2023-01-30T17:25:01.636Z,99620.63
2023-01-30T17:27:30.517Z,99622.71
2023-01-30T17:29:59.003Z,99619.73
2023-01-30T17:32:27.313Z,99613.59
2023-01-30T17:34:56.918Z,99610.80
2023-01-30T17:37:25.811Z,99612.35
2023-01-30T17:39:59.309Z,99607.48
2023-01-30T17:42:27.929Z,99610.60
2023-01-30T17:44:56.372Z,99608.16
2023-01-30T17:47:24.751Z,99607.84
2023-01-30T17:49:56.023Z,99607.05
2023-01-30T17:52:24.375Z,99604.53
2023-01-30T17:54:53.512Z,99599.61
2023-01-30T17:57:25.248Z,99600.08
2023-01-30T17:59:55.456Z,99597.50
2023-01-30T18:02:23.801Z,99596.03
2023-01-30T18:04:52.720Z,99597.35
2023-01-30T18:07:22.838Z,99590.42
2023-01-30T18:09:51.299Z,99589.89
2023-01-30T18:12:19.903Z,99583.20
2023-01-30T18:14:48.302Z,99584.06
2023-01-30T18:17:17.279Z,99580.98
2023-01-30T18:19:45.655Z,99580.13
2023-01-30T18:22:14.055Z,99582.80
2023-01-30T18:24:42.829Z,99579.65
2023-01-30T18:27:12.131Z,99574.17
2023-01-30T18:29:40.395Z,99574.42
2023-01-30T18:32:09.183Z,99577.35
2023-01-30T18:34:38.996Z,99573.69
2023-01-30T18:37:07.280Z,99571.72
2023-01-30T18:39:37.083Z,99573.52
2023-01-30T18:42:08.127Z,99571.80
2023-01-30T18:44:36.613Z,99568.14
2023-01-30T18:47:05.506Z,99569.84
2023-01-30T18:49:35.104Z,99564.16
2023-01-30T18:52:03.587Z,99550.81
2023-01-30T18:54:37.823Z,99548.45
2023-01-30T18:57:06.385Z,99550.14
2023-01-30T18:59:34.968Z,99549.84
2023-01-30T19:02:03.244Z,99547.36
2023-01-30T19:04:33.670Z,99548.79
2023-01-30T19:07:01.948Z,99549.96
2023-01-30T19:09:31.286Z,99549.42
2023-01-30T19:12:18.366Z,99538.27
2023-01-30T19:14:46.847Z,99535.52
2023-01-30T19:17:16.760Z,99532.43
2023-01-30T19:19:46.688Z,99529.17
2023-01-30T19:22:16.662Z,99526.52
2023-01-30T19:24:45.498Z,99526.77
2023-01-30T19:27:14.099Z,99525.96
2023-01-30T19:29:45.920Z,99531.18
2023-01-30T19:32:14.713Z,99529.48
2023-01-30T19:34:43.811Z,99528.52
2023-01-30T19:37:12.082Z,99530.39
2023-01-30T19:39:40.665Z,99528.40
2023-01-30T19:42:09.490Z,99527.60
2023-01-30T19:44:38.049Z,99531.92
2023-01-30T19:47:09.486Z,99526.48
2023-01-30T19:49:37.794Z,99525.96
2023-01-30T19:52:06.039Z,99530.89
2023-01-30T19:54:36.097Z,99528.98
2023-01-30T19:57:05.051Z,99527.66
2023-01-30T19:59:34.864Z,99534.48
2023-01-30T20:02:03.352Z,99529.71
2023-01-30T20:04:34.077Z,99529.59
2023-01-30T20:07:02.353Z,99524.30
2023-01-30T20:09:30.945Z,99524.16
2023-01-30T20:11:59.624Z,99526.70
2023-01-30T20:14:28.179Z,99529.45
2023-01-30T20:16:56.482Z,99525.45
2023-01-30T20:19:24.962Z,99531.00
2023-01-30T20:21:59.163Z,99528.83
2023-01-30T20:24:28.170Z,99535.52
2023-01-30T20:26:56.638Z,99530.70
2023-01-30T20:29:25.132Z,99533.48
2023-01-30T20:31:54.733Z,99531.65
2023-01-30T20:34:28.858Z,99534.34
2023-01-30T20:36:57.233Z,99532.36
2023-01-30T20:39:26.018Z,99538.11
2023-01-30T20:41:59.347Z,99536.05
2023-01-30T20:44:27.693Z,99536.94
2023-01-30T20:46:56.985Z,99536.16
2023-01-30T20:49:25.793Z,99531.95
2023-01-30T20:51:54.569Z,99533.80
2023-01-30T20:54:23.671Z,99530.36
2023-01-30T20:56:53.120Z,99530.27
2023-01-30T20:59:27.407Z,99527.69
2023-01-30T21:01:55.967Z,99522.30
2023-01-30T21:04:24.784Z,99519.77
2023-01-30T21:06:53.335Z,99515.84
2023-01-30T21:09:24.301Z,99513.85
2023-01-30T21:11:53.588Z,99516.77
2023-01-30T21:14:22.626Z,99519.55
2023-01-30T21:16:51.359Z,99521.05
2023-01-30T21:19:20.251Z,99523.34
2023-01-30T21:21:58.869Z,99519.75
2023-01-30T21:24:28.601Z,99519.69
2023-01-30T21:26:57.277Z,99521.84
2023-01-30T21:29:26.475Z,99516.55
2023-01-30T21:32:00.325Z,99517.97
2023-01-30T21:34:29.160Z,99522.00
2023-01-30T21:37:20.680Z,99518.52
2023-01-30T21:40:12.647Z,99522.27
2023-01-30T21:42:59.701Z,99521.59
2023-01-30T21:45:33.535Z,99516.40
2023-01-30T21:48:02.533Z,99515.24
2023-01-30T21:50:31.212Z,99520.02
2023-01-30T21:53:00.307Z,99513.56
2023-01-30T21:55:29.059Z,99514.98
2023-01-30T21:57:59.525Z,99509.52
2023-01-30T22:00:28.214Z,99505.05
2023-01-30T22:02:56.686Z,99502.67
2023-01-30T22:05:25.073Z,99497.77
2023-01-30T22:07:54.318Z,99496.63
2023-01-30T22:10:22.669Z,99498.67
2023-01-30T22:12:51.125Z,99498.04
2023-01-30T22:15:29.848Z,99494.52
2023-01-30T22:17:58.480Z,99492.77
2023-01-30T22:20:27.113Z,99495.61
2023-01-30T22:22:57.639Z,99499.48
2023-01-30T22:25:26.127Z,99487.13
2023-01-30T22:27:55.320Z,99489.63
2023-01-30T22:30:23.635Z,99487.66
2023-01-30T22:32:54.961Z,99490.04
2023-01-30T22:35:23.222Z,99484.85
2023-01-30T22:37:51.938Z,99481.34
2023-01-30T22:40:20.698Z,99482.23
2023-01-30T22:42:50.815Z,99480.29
2023-01-30T22:45:19.611Z,99483.61
2023-01-30T22:47:48.288Z,99480.54
2023-01-30T22:50:17.517Z,99477.18
2023-01-30T22:52:45.980Z,99478.10
2023-01-30T22:55:14.458Z,99480.83
